Aviation Digital Data Service (ADDS)

Output produced by METARs form (2237 UTC 17 April 2014)
found at http://www.aviationweather.gov/adds/metars/
 
KGED 172154Z AUTO 08013KT 10SM OVC029 07/M01 A3061 RMK AO2 SLP367 T00671006